Time;durP1;ratioP1;P1;durP2;ratioP2;P2;SDS_P1;SDS_P2;PMS_P1;PMS_P2;Temp;Humidity;BMP_temperature;BMP_pressure;BME280_temperature;BME280_humidity;BME280_pressure;Samples;Min_cycle;Max_cycle;Signal;HPM_P1;HPM_P2
2023/10/17 08:05:37;;;;;;;;;;;;;;;8.21;100.00;99638.94;5029880;28;19936;-84
2023/10/17 08:08:11;;;;;;;;;;;;;;;8.26;100.00;99638.78;5032280;28;20552;-95
2023/10/17 08:10:38;;;;;;;;;;;;;;;8.32;100.00;99649.13;5032376;28;19975;-85
2023/10/17 08:13:04;;;;;;;;;;;;;;;8.37;100.00;99652.44;5032219;28;19917;-87
2023/10/17 08:18:17;;;;;;;;;;;;;;;9.29;100.00;99647.31;5031053;28;19963;-84
2023/10/17 08:23:34;;;;;;;;;;;;;;;8.85;100.00;99658.66;4993796;28;19929;-84
2023/10/17 08:26:00;;;;;;;;;;;;;;;8.79;100.00;99670.34;5013517;28;20014;-88
2023/10/17 08:28:33;;;;;;;;;;;;;;;8.84;100.00;99670.13;5014130;28;20371;-87
2023/10/17 08:33:50;;;;;;;;;;;;;;;9.63;100.00;99668.78;5030815;28;19929;-83
2023/10/17 08:36:16;;;;;;;;;;;;;;;9.91;100.00;99659.72;5014077;28;19925;-86
2023/10/17 08:38:47;;;;;;;;;;;;;;;9.39;100.00;99664.50;4998185;28;19917;-85
2023/10/17 08:41:15;;;;;;;;;;;;;;;9.18;100.00;99672.38;5032013;28;19922;-88
2023/10/17 08:43:41;;;;;;;;;;;;;;;9.10;100.00;99674.44;5032222;28;19956;-84
2023/10/17 08:46:09;;;;;;;;;;;;;;;9.07;100.00;99669.28;5031930;28;20022;-88
2023/10/17 08:48:36;;;;;;;;;;;;;;;9.07;100.00;99669.28;5030675;28;19921;-83
2023/10/17 08:51:06;;;;;;;;;;;;;;;9.07;100.00;99671.91;5030937;28;19917;-84
2023/10/17 08:53:31;;;;;;;;;;;;;;;9.04;100.00;99659.66;5030050;28;19917;-86
2023/10/17 08:56:36;;;;;;;;;;;;;;;9.05;100.00;99650.84;5030877;28;20132;-88
2023/10/17 08:59:04;;;;;;;;;;;;;;;9.05;100.00;99649.97;4969924;28;19925;-84
2023/10/17 09:01:30;;;;;;;;;;;;;;;9.07;100.00;99638.41;4970684;28;19925;-85
2023/10/17 09:03:56;;;;;;;;;;;;;;;9.09;100.00;99635.72;4998482;28;19921;-85
2023/10/17 09:08:50;;;;;;;;;;;;;;;9.11;100.00;99633.88;5031967;28;19921;-86
2023/10/17 09:11:25;;;;;;;;;;;;;;;9.12;100.00;99635.59;5031099;28;19921;-84
2023/10/17 09:16:16;;;;;;;;;;;;;;;9.15;100.00;99632.81;5031448;28;19913;-84
2023/10/17 09:18:49;;;;;;;;;;;;;;;9.14;100.00;99628.44;5030376;28;19968;-83
2023/10/17 09:21:14;;;;;;;;;;;;;;;9.16;100.00;99626.63;5013123;28;19936;-84
2023/10/17 09:23:43;;;;;;;;;;;;;;;9.16;100.00;99624.00;5031194;28;20289;-88
2023/10/17 09:26:12;;;;;;;;;;;;;;;9.16;100.00;99628.38;5031487;28;19932;-85
2023/10/17 09:28:39;;;;;;;;;;;;;;;9.17;100.00;99633.63;5031178;28;19921;-84
2023/10/17 09:31:09;;;;;;;;;;;;;;;9.19;100.00;99630.91;5030618;28;19917;-85
2023/10/17 09:33:56;;;;;;;;;;;;;;;9.19;100.00;99638.84;5029387;28;19928;-89
2023/10/17 09:36:21;;;;;;;;;;;;;;;9.23;100.00;99632.53;5032108;28;19917;-85
2023/10/17 09:38:47;;;;;;;;;;;;;;;9.21;100.00;99629.94;5034760;28;20364;-84
2023/10/17 09:41:18;;;;;;;;;;;;;;;9.22;100.00;99631.69;5034668;28;19924;-89
2023/10/17 09:43:53;;;;;;;;;;;;;;;9.26;100.00;99625.31;5035284;28;20018;-88
2023/10/17 09:46:22;;;;;;;;;;;;;;;9.25;100.00;99618.34;5034596;28;19925;-90
2023/10/17 09:49:02;;;;;;;;;;;;;;;9.30;100.00;99627.84;5024087;28;19921;-87
2023/10/17 09:51:33;;;;;;;;;;;;;;;9.29;100.00;99627.00;5015693;28;20234;-86
2023/10/17 09:53:58;;;;;;;;;;;;;;;9.30;100.00;99627.84;5034256;28;19925;-85
2023/10/17 09:56:31;;;;;;;;;;;;;;;9.30;100.00;99633.13;5034512;28;19917;-85
2023/10/17 09:59:02;;;;;;;;;;;;;;;9.35;100.00;99620.59;5034003;28;19917;-91
2023/10/17 10:01:31;;;;;;;;;;;;;;;9.33;100.00;99633.88;5033975;28;19932;-87
2023/10/17 10:03:57;;;;;;;;;;;;;;;9.31;100.00;99630.44;5032067;28;19921;-84
2023/10/17 10:06:25;;;;;;;;;;;;;;;9.34;100.00;99625.03;5034498;28;19921;-86
2023/10/17 10:09:14;;;;;;;;;;;;;;;9.34;100.00;99624.16;5016922;28;19917;-87
2023/10/17 10:11:49;;;;;;;;;;;;;;;9.33;100.00;99623.28;5025237;28;19928;-87
2023/10/17 10:14:35;;;;;;;;;;;;;;;9.35;100.00;99623.22;5034301;28;19968;-88
2023/10/17 10:19:42;;;;;;;;;;;;;;;9.38;100.00;99626.63;5122288;23;19928;-85
2023/10/17 10:22:12;;;;;;;;;;;;;;;9.38;100.00;99617.81;5016448;28;19944;-85
2023/10/17 10:24:39;;;;;;;;;;;;;;;9.39;100.00;99624.84;5033786;28;20015;-89
2023/10/17 10:27:23;;;;;;;;;;;;;;;9.35;100.00;99605.59;5016108;28;19918;-86
2023/10/17 10:29:52;;;;;;;;;;;;;;;9.39;100.00;99619.56;5015343;28;19940;-85
2023/10/17 10:35:20;;;;;;;;;;;;;;;9.44;100.00;99599.94;5025775;23;19941;-87
2023/10/17 10:37:54;;;;;;;;;;;;;;;9.39;100.00;99601.03;5013958;28;19917;-87
2023/10/17 10:40:22;;;;;;;;;;;;;;;9.41;100.00;99599.19;5004398;28;19918;-87
2023/10/17 10:42:53;;;;;;;;;;;;;;;9.40;100.00;99592.19;5014020;28;20328;-89
2023/10/17 10:46:00;;;;;;;;;;;;;;;9.40;100.00;99598.34;5004340;28;19918;-89
2023/10/17 10:48:23;;;;;;;;;;;;;;;9.40;100.00;99587.75;5010960;28;19917;-86
2023/10/17 10:55:10;;;;;;;;;;;;;;;9.46;100.00;99583.97;4994561;28;19918;-88
2023/10/17 10:57:25;;;;;;;;;;;;;;;9.46;100.00;99583.97;5004338;28;19940;-87
2023/10/17 10:59:52;;;;;;;;;;;;;;;9.51;100.00;99592.59;5013286;28;19956;-87
2023/10/17 11:02:18;;;;;;;;;;;;;;;9.51;100.00;99586.44;5012233;28;19918;-84
2023/10/17 11:04:43;;;;;;;;;;;;;;;9.49;100.00;99585.66;5013733;28;19921;-89
2023/10/17 11:07:21;;;;;;;;;;;;;;;9.50;100.00;99590.03;5013338;28;19920;-87
2023/10/17 11:10:03;;;;;;;;;;;;;;;9.62;100.00;99577.16;5013263;28;19925;-84
2023/10/17 11:12:29;;;;;;;;;;;;;;;9.56;100.00;99577.41;5003651;28;20357;-85
2023/10/17 11:15:49;;;;;;;;;;;;;;;9.56;100.00;99569.47;5013384;28;20001;-85
2023/10/17 11:18:01;;;;;;;;;;;;;;;9.57;100.00;99573.84;5003837;28;19921;-83
2023/10/17 11:20:27;;;;;;;;;;;;;;;9.57;100.00;99573.84;5013018;28;19921;-85
2023/10/17 11:22:53;;;;;;;;;;;;;;;9.60;100.00;99565.75;5013442;28;20281;-86
2023/10/17 11:25:27;;;;;;;;;;;;;;;9.59;100.00;99566.69;5013126;28;19980;-88
2023/10/17 11:28:07;;;;;;;;;;;;;;;9.64;100.00;99564.72;5012528;28;19918;-87
2023/10/17 11:30:39;;;;;;;;;;;;;;;9.66;100.00;99559.34;5013133;28;19917;-87
2023/10/17 11:33:05;;;;;;;;;;;;;;;9.68;100.00;99560.13;5011526;28;19921;-83
2023/10/17 11:38:22;;;;;;;;;;;;;;;9.70;100.00;99547.72;5264240;23;19929;-87
2023/10/17 11:40:48;;;;;;;;;;;;;;;9.72;100.00;99551.16;5004682;28;19984;-85
2023/10/17 11:43:15;;;;;;;;;;;;;;;9.73;100.00;99547.59;5021843;28;20364;-86
2023/10/17 11:45:41;;;;;;;;;;;;;;;9.73;100.00;99534.38;5022556;28;19924;-87
2023/10/17 11:48:26;;;;;;;;;;;;;;;9.75;100.00;99536.94;5021153;28;20016;-81
2023/10/17 11:51:28;;;;;;;;;;;;;;;9.75;100.00;99534.31;5012323;28;19940;-82
2023/10/17 11:54:04;;;;;;;;;;;;;;;9.75;100.00;99534.31;5012992;28;19940;-88
2023/10/17 11:56:36;;;;;;;;;;;;;;;9.78;100.00;99540.31;5022239;28;19990;-82
2023/10/17 11:59:03;;;;;;;;;;;;;;;9.80;100.00;99540.25;5022999;28;19917;-85
2023/10/17 12:01:32;;;;;;;;;;;;;;;10.45;100.00;99540.00;5005768;28;19968;-90
2023/10/17 12:03:58;;;;;;;;;;;;;;;10.08;100.00;99552.25;5020750;28;19924;-83
2023/10/17 12:06:26;;;;;;;;;;;;;;;9.97;100.00;99550.94;5013126;28;20363;-82
2023/10/17 12:08:52;;;;;;;;;;;;;;;9.93;100.00;99545.84;5022218;28;20295;-82
2023/10/17 12:11:18;;;;;;;;;;;;;;;9.94;100.00;99542.25;5004301;28;20097;-82
2023/10/17 12:13:43;;;;;;;;;;;;;;;9.93;100.00;99543.22;5022310;28;19917;-83
2023/10/17 12:16:09;;;;;;;;;;;;;;;9.95;100.00;99539.56;5022529;28;20251;-83
2023/10/17 12:18:35;;;;;;;;;;;;;;;9.95;100.00;99542.19;5020768;28;19942;-83
2023/10/17 12:21:01;;;;;;;;;;;;;;;9.94;100.00;99535.22;5022430;28;19917;-82
2023/10/17 12:23:30;;;;;;;;;;;;;;;9.92;100.00;99531.75;5020973;28;19917;-85
2023/10/17 12:26:01;;;;;;;;;;;;;;;9.89;100.00;99521.31;5022465;28;19952;-83
2023/10/17 12:28:26;;;;;;;;;;;;;;;9.91;100.00;99522.09;5022379;28;20352;-82
2023/10/17 12:30:52;;;;;;;;;;;;;;;9.91;100.00;99522.09;5022357;28;20023;-87
2023/10/17 12:33:22;;;;;;;;;;;;;;;9.89;100.00;99521.31;5010381;28;19940;-83
2023/10/17 12:35:47;;;;;;;;;;;;;;;9.89;100.00;99517.78;5020993;28;19918;-83
2023/10/17 12:38:24;;;;;;;;;;;;;;;9.91;100.00;99511.53;5022197;28;19931;-85
2023/10/17 12:40:49;;;;;;;;;;;;;;;9.92;100.00;99501.78;5003538;28;20253;-84
2023/10/17 12:43:16;;;;;;;;;;;;;;;9.93;100.00;99500.88;5012644;28;20033;-83
2023/10/17 12:45:41;;;;;;;;;;;;;;;9.94;100.00;99499.91;5004102;28;20403;-83
2023/10/17 12:48:10;;;;;;;;;;;;;;;9.92;100.00;99491.19;5011519;28;19917;-82
2023/10/17 12:50:36;;;;;;;;;;;;;;;9.95;100.00;99481.31;5004034;28;19921;-84
2023/10/17 12:53:01;;;;;;;;;;;;;;;9.96;100.00;99475.13;5021759;28;19926;-83
2023/10/17 12:55:27;;;;;;;;;;;;;;;9.95;100.00;99478.69;5021944;28;19928;-83
2023/10/17 12:57:57;;;;;;;;;;;;;;;9.95;100.00;99473.38;5021995;28;19924;-82
2023/10/17 13:00:25;;;;;;;;;;;;;;;9.97;100.00;99465.38;5021375;28;20025;-86
2023/10/17 13:02:52;;;;;;;;;;;;;;;9.95;100.00;99460.16;5010333;28;19913;-85
2023/10/17 13:05:20;;;;;;;;;;;;;;;9.97;100.00;99466.25;5021953;28;20390;-84
2023/10/17 13:07:48;;;;;;;;;;;;;;;9.97;100.00;99457.44;5021888;28;20380;-86
2023/10/17 13:10:13;;;;;;;;;;;;;;;9.98;100.00;99452.06;5021459;28;19977;-84
2023/10/17 13:12:39;;;;;;;;;;;;;;;9.99;100.00;99452.94;5024757;28;19964;-85
2023/10/17 13:15:08;;;;;;;;;;;;;;;10.00;100.00;99452.00;5025586;28;19913;-82
2023/10/17 13:17:34;;;;;;;;;;;;;;;10.00;100.00;99454.66;5023379;28;19928;-81
2023/10/17 13:20:07;;;;;;;;;;;;;;;10.00;100.00;99449.34;5025525;28;19913;-87
2023/10/17 13:22:46;;;;;;;;;;;;;;;9.99;100.00;99450.31;5024630;28;19927;-83
2023/10/17 13:25:11;;;;;;;;;;;;;;;10.00;100.00;99444.94;5024361;28;20335;-84
2023/10/17 13:27:37;;;;;;;;;;;;;;;9.98;100.00;99438.84;5016136;28;20011;-83
2023/10/17 13:30:04;;;;;;;;;;;;;;;10.00;100.00;99437.00;5025565;28;19925;-84
2023/10/17 13:32:30;;;;;;;;;;;;;;;10.00;100.00;99429.06;5024212;28;19918;-84
2023/10/17 13:34:56;;;;;;;;;;;;;;;10.02;100.00;99428.13;5025452;28;19924;-82
2023/10/17 13:37:21;;;;;;;;;;;;;;;10.02;100.00;99429.00;5024875;28;19926;-82
2023/10/17 13:39:46;;;;;;;;;;;;;;;10.04;100.00;99427.13;5024921;28;20007;-83
2023/10/17 13:42:13;;;;;;;;;;;;;;;10.05;100.00;99431.50;5025485;28;20002;-84
2023/10/17 13:44:38;;;;;;;;;;;;;;;10.05;100.00;99428.84;5025176;28;19922;-85
2023/10/17 13:47:05;;;;;;;;;;;;;;;10.09;100.00;99426.91;5023234;28;19921;-84
2023/10/17 13:49:31;;;;;;;;;;;;;;;10.09;100.00;99426.91;5015705;28;19917;-84
2023/10/17 13:51:56;;;;;;;;;;;;;;;10.06;100.00;99424.41;5006580;28;19921;-83
2023/10/17 13:54:45;;;;;;;;;;;;;;;10.09;100.00;99426.91;5025249;28;19921;-85
2023/10/17 13:57:10;;;;;;;;;;;;;;;10.11;100.00;99428.53;5024622;28;19917;-84
2023/10/17 13:59:38;;;;;;;;;;;;;;;10.13;100.00;99428.47;5024349;28;20004;-83
2023/10/17 14:02:06;;;;;;;;;;;;;;;10.23;100.00;99429.78;5023674;28;20280;-87
2023/10/17 14:04:32;;;;;;;;;;;;;;;10.19;100.00;99430.84;5024440;28;19925;-86
2023/10/17 14:06:57;;;;;;;;;;;;;;;10.16;100.00;99418.63;5014850;28;19921;-84
2023/10/17 14:09:23;;;;;;;;;;;;;;;10.17;100.00;99422.13;5024975;28;20017;-85
2023/10/17 14:11:50;;;;;;;;;;;;;;;10.14;100.00;99420.47;5024707;28;19921;-83
2023/10/17 14:14:16;;;;;;;;;;;;;;;10.15;100.00;99421.34;5023343;28;20375;-84
2023/10/17 14:16:41;;;;;;;;;;;;;;;10.22;100.00;99416.59;5024590;28;20017;-83
2023/10/17 14:19:15;;;;;;;;;;;;;;;10.20;100.00;99423.78;5005717;28;20016;-83
2023/10/17 14:25:00;;;;;;;;;;;;;;;10.20;100.00;99427.28;4985899;28;19921;-84
2023/10/17 14:27:32;;;;;;;;;;;;;;;10.20;100.00;99424.63;5006189;28;19964;-83
2023/10/17 14:29:58;;;;;;;;;;;;;;;10.18;100.00;99431.78;5013720;28;20430;-84
2023/10/17 14:32:24;;;;;;;;;;;;;;;10.27;100.00;99423.38;5023009;28;20032;-83
2023/10/17 14:34:50;;;;;;;;;;;;;;;10.27;100.00;99415.44;5024202;28;20423;-85
2023/10/17 14:37:15;;;;;;;;;;;;;;;10.23;100.00;99413.88;5006132;28;19921;-81
2023/10/17 14:39:41;;;;;;;;;;;;;;;10.22;100.00;99414.81;5023592;28;20004;-81
2023/10/17 14:42:10;;;;;;;;;;;;;;;10.23;100.00;99411.25;5022865;28;19924;-84
2023/10/17 14:44:36;;;;;;;;;;;;;;;10.24;100.00;99414.72;5024004;28;19918;-84
2023/10/17 14:47:01;;;;;;;;;;;;;;;10.24;100.00;99412.94;5005103;28;19924;-83
2023/10/17 14:49:26;;;;;;;;;;;;;;;10.24;100.00;99412.94;5023628;28;20334;-83
2023/10/17 14:51:53;;;;;;;;;;;;;;;10.28;100.00;99411.88;5013743;28;19971;-84
2023/10/17 14:54:18;;;;;;;;;;;;;;;10.25;100.00;99406.72;5013231;28;19917;-84
2023/10/17 14:56:43;;;;;;;;;;;;;;;10.24;100.00;99415.59;5023438;28;20391;-85
2023/10/17 14:59:09;;;;;;;;;;;;;;;10.27;100.00;99410.13;5006305;28;20602;-84
2023/10/17 15:01:35;;;;;;;;;;;;;;;10.26;100.00;99402.28;5023605;28;20277;-84
2023/10/17 15:04:00;;;;;;;;;;;;;;;10.29;100.00;99397.72;5021968;28;19922;-83
2023/10/17 15:06:25;;;;;;;;;;;;;;;10.31;100.00;99395.84;5022836;28;19940;-84
2023/10/17 15:08:51;;;;;;;;;;;;;;;10.30;100.00;99399.41;5023095;28;20408;-86
2023/10/17 15:11:16;;;;;;;;;;;;;;;10.30;100.00;99394.13;5024512;28;19921;-83
2023/10/17 15:13:42;;;;;;;;;;;;;;;10.30;100.00;99398.56;5023377;28;19925;-84
2023/10/17 15:16:18;;;;;;;;;;;;;;;10.27;100.00;99399.56;5023038;28;20383;-83
2023/10/17 15:18:53;;;;;;;;;;;;;;;10.27;100.00;99394.25;5021690;28;19924;-83
2023/10/17 15:21:21;;;;;;;;;;;;;;;10.28;100.00;99395.13;5013687;28;19918;-84
2023/10/17 15:23:47;;;;;;;;;;;;;;;10.27;100.00;99396.91;5023169;28;19917;-86
2023/10/17 15:26:13;;;;;;;;;;;;;;;10.24;100.00;99390.91;5023789;28;20426;-86
2023/10/17 15:28:41;;;;;;;;;;;;;;;10.26;100.00;99392.56;5005247;28;19957;-88
2023/10/17 15:31:15;;;;;;;;;;;;;;;10.26;100.00;99394.31;5022705;28;19921;-90
2023/10/17 15:33:41;;;;;;;;;;;;;;;10.25;100.00;99389.97;5020994;28;19921;-83
2023/10/17 15:36:34;;;;;;;;;;;;;;;10.24;100.00;99390.91;5023736;28;19921;-89
2023/10/17 15:39:00;;;;;;;;;;;;;;;10.26;100.00;99396.97;5022863;28;19927;-87
2023/10/17 15:41:26;;;;;;;;;;;;;;;10.25;100.00;99390.84;5023137;28;19921;-86
2023/10/17 15:43:51;;;;;;;;;;;;;;;10.24;100.00;99397.03;5021654;28;19925;-84
2023/10/17 15:46:17;;;;;;;;;;;;;;;10.29;100.00;99392.41;5004856;28;20324;-83
2023/10/17 15:48:42;;;;;;;;;;;;;;;10.32;100.00;99396.69;5022039;28;20376;-85
2023/10/17 15:51:08;;;;;;;;;;;;;;;10.33;100.00;99399.28;5022499;28;19929;-85
2023/10/17 15:53:33;;;;;;;;;;;;;;;10.34;100.00;99401.03;5022468;28;19925;-84
2023/10/17 15:56:00;;;;;;;;;;;;;;;10.34;100.00;99394.88;5022579;28;19952;-84
2023/10/17 15:58:26;;;;;;;;;;;;;;;10.33;100.00;99394.00;5005006;28;19950;-86
2023/10/17 16:00:52;;;;;;;;;;;;;;;10.34;100.00;99395.72;5022289;28;19964;-86
2023/10/17 16:03:18;;;;;;;;;;;;;;;10.36;100.00;99399.16;5004299;28;19953;-86
2023/10/17 16:05:43;;;;;;;;;;;;;;;10.36;100.00;99396.50;5026105;23;19930;-83
2023/10/17 16:08:24;;;;;;;;;;;;;;;10.38;100.00;99395.56;5012351;28;19971;-87
2023/10/17 16:10:53;;;;;;;;;;;;;;;10.40;100.00;99402.50;5012447;28;19917;-84
2023/10/17 16:13:30;;;;;;;;;;;;;;;10.41;100.00;99401.56;5002654;28;19930;-87
2023/10/17 16:15:58;;;;;;;;;;;;;;;10.39;100.00;99403.44;5011615;28;19921;-90
2023/10/17 16:18:23;;;;;;;;;;;;;;;10.40;100.00;99401.66;5011365;28;19972;-85
2023/10/17 16:20:49;;;;;;;;;;;;;;;10.39;100.00;99402.56;5013998;28;19947;-89
2023/10/17 16:23:17;;;;;;;;;;;;;;;10.38;100.00;99400.88;5001567;28;19971;-85
2023/10/17 16:25:47;;;;;;;;;;;;;;;10.40;100.00;99405.16;5012225;28;19918;-85
2023/10/17 16:28:13;;;;;;;;;;;;;;;10.41;100.00;99398.94;5011697;28;19921;-86
2023/10/17 16:30:41;;;;;;;;;;;;;;;10.39;100.00;99403.44;5012011;28;20012;-87
2023/10/17 16:33:14;;;;;;;;;;;;;;;10.39;100.00;99407.88;5010380;28;19921;-88
2023/10/17 16:35:42;;;;;;;;;;;;;;;10.42;100.00;99413.03;5003633;28;19914;-87
2023/10/17 16:38:16;;;;;;;;;;;;;;;10.37;100.00;99405.31;5014280;28;19984;-84
2023/10/17 16:40:43;;;;;;;;;;;;;;;10.41;100.00;99413.97;5012242;28;19914;-89
2023/10/17 16:43:09;;;;;;;;;;;;;;;10.42;100.00;99423.63;5012220;28;19926;-86
2023/10/17 16:45:36;;;;;;;;;;;;;;;10.42;100.00;99423.63;5012392;28;19920;-89
2023/10/17 16:48:10;;;;;;;;;;;;;;;10.42;100.00;99423.63;5014975;28;19921;-85
2023/10/17 16:50:36;;;;;;;;;;;;;;;9.90;100.00;99429.56;5015672;28;19917;-87
2023/10/17 16:53:21;;;;;;;;;;;;;;;8.50;100.00;99436.38;5006013;28;19975;-86
2023/10/17 16:55:46;;;;;;;;;;;;;;;7.99;100.00;99430.38;5016059;28;20435;-87
2023/10/17 16:58:12;;;;;;;;;;;;;;;7.78;100.00;99430.25;5015925;28;19926;-85
2023/10/17 17:00:37;;;;;;;;;;;;;;;7.60;100.00;99439.72;5006470;28;19918;-85
2023/10/17 17:03:03;;;;;;;;;;;;;;;7.42;100.00;99441.25;5014419;28;20357;-85
2023/10/17 17:05:29;;;;;;;;;;;;;;;7.18;100.00;99445.59;5015871;28;19975;-84
2023/10/17 17:07:55;;;;;;;;;;;;;;;7.22;100.00;99443.72;5006158;28;19924;-85
2023/10/17 17:10:20;;;;;;;;;;;;;;;7.01;100.00;99450.59;5015703;28;20016;-84
2023/10/17 17:12:46;;;;;;;;;;;;;;;6.96;100.00;99457.78;5015755;28;19936;-88
2023/10/17 17:15:12;;;;;;;;;;;;;;;6.81;100.00;99459.13;5015597;28;19921;-85
2023/10/17 17:17:38;;;;;;;;;;;;;;;6.81;100.00;99456.50;5013330;28;19924;-86
2023/10/17 17:20:10;;;;;;;;;;;;;;;6.74;100.00;99453.22;5015738;28;19933;-86
2023/10/17 17:22:36;;;;;;;;;;;;;;;6.73;100.00;99454.09;5005279;28;19924;-85
2023/10/17 17:25:04;;;;;;;;;;;;;;;6.64;100.00;99457.06;5015515;28;19926;-86
2023/10/17 17:27:31;;;;;;;;;;;;;;;6.56;100.00;99454.66;5015504;28;19918;-84
2023/10/17 17:29:57;;;;;;;;;;;;;;;6.44;100.00;99455.91;5005666;28;20007;-84
2023/10/17 17:32:22;;;;;;;;;;;;;;;6.47;100.00;99454.94;5014465;28;20499;-85
2023/10/17 17:34:48;;;;;;;;;;;;;;;6.39;100.00;99454.34;5005493;28;20357;-84
2023/10/17 17:37:22;;;;;;;;;;;;;;;6.31;100.00;99451.94;5015283;28;19957;-86
2023/10/17 17:39:47;;;;;;;;;;;;;;;6.22;100.00;99450.44;5005448;28;19949;-85
2023/10/17 17:42:17;;;;;;;;;;;;;;;6.15;100.00;99449.75;5013924;28;19921;-86
2023/10/17 17:44:42;;;;;;;;;;;;;;;6.19;100.00;99453.19;5015128;28;20385;-85
2023/10/17 17:50:14;;;;;;;;;;;;;;;6.04;100.00;99458.88;5042185;23;20346;-88
2023/10/17 17:52:39;;;;;;;;;;;;;;;6.02;100.00;99451.03;5016963;28;20008;-86
2023/10/17 17:55:13;;;;;;;;;;;;;;;5.97;100.00;99451.19;5016813;28;20043;-86
2023/10/17 17:57:38;;;;;;;;;;;;;;;5.88;100.00;99451.41;5034486;28;19917;-85
2023/10/17 18:00:15;;;;;;;;;;;;;;;5.86;100.00;99447.97;5010893;28;19921;-85
2023/10/17 18:02:40;;;;;;;;;;;;;;;5.84;100.00;99447.16;5015532;28;19928;-85
2023/10/17 18:05:06;;;;;;;;;;;;;;;5.87;100.00;99446.19;5016535;28;19917;-87
2023/10/17 18:07:31;;;;;;;;;;;;;;;5.87;100.00;99444.44;5011614;28;20272;-86
2023/10/17 18:10:03;;;;;;;;;;;;;;;5.86;100.00;99437.44;5034544;28;19928;-89
2023/10/17 18:12:31;;;;;;;;;;;;;;;5.88;100.00;99438.25;5033724;28;19921;-86
2023/10/17 18:14:56;;;;;;;;;;;;;;;5.66;100.00;99438.00;5034489;28;19928;-87
2023/10/17 18:17:22;;;;;;;;;;;;;;;5.71;100.00;99435.25;5033319;28;19921;-87
2023/10/17 18:19:58;;;;;;;;;;;;;;;;;;;;;
2023/10/17 18:22:46;;;;;;;;;;;;;;;;;;;;;
2023/10/17 18:25:11;;;;;;;;;;;;;;;5.85;100.00;99440.97;5033528;28;20376;-86
2023/10/17 18:27:37;;;;;;;;;;;;;;;5.74;100.00;99435.16;5034126;28;20004;-85
2023/10/17 18:30:06;;;;;;;;;;;;;;;5.68;100.00;99428.34;5016221;28;19917;-83
2023/10/17 18:32:40;;;;;;;;;;;;;;;5.53;100.00;99434.00;5032360;28;20015;-85
2023/10/17 18:35:23;;;;;;;;;;;;;;;5.66;100.00;99421.38;5007139;28;19963;-89
2023/10/17 18:37:49;;;;;;;;;;;;;;;5.57;100.00;99426.00;5016412;28;19956;-85
2023/10/17 18:40:14;;;;;;;;;;;;;;;5.44;100.00;99424.59;5033474;28;19963;-85
2023/10/17 18:42:56;;;;;;;;;;;;;;;5.38;100.00;99423.03;5019733;28;19921;-86
2023/10/17 18:45:24;;;;;;;;;;;;;;;5.50;100.00;99418.31;5015677;28;19924;-86
2023/10/17 18:47:49;;;;;;;;;;;;;;;5.29;100.00;99420.63;5032483;28;19917;-85
2023/10/17 18:50:15;;;;;;;;;;;;;;;5.25;100.00;99413.75;5015238;28;19943;-86
2023/10/17 18:52:40;;;;;;;;;;;;;;;5.31;100.00;99416.19;5015706;28;19921;-85
2023/10/17 18:55:11;;;;;;;;;;;;;;;5.38;100.00;99415.13;5033613;28;19917;-85
2023/10/17 18:57:39;;;;;;;;;;;;;;;5.20;100.00;99418.25;5032442;28;19917;-84
2023/10/17 19:00:25;;;;;;;;;;;;;;;5.26;100.00;99415.47;5015270;28;19917;-85
2023/10/17 19:02:50;;;;;;;;;;;;;;;5.28;100.00;99411.91;5032147;28;19921;-85
2023/10/17 19:05:16;;;;;;;;;;;;;;;5.03;100.00;99413.47;5015488;28;19917;-84
2023/10/17 19:07:41;;;;;;;;;;;;;;;5.16;100.00;99403.50;5033226;28;19921;-84
2023/10/17 19:10:09;;;;;;;;;;;;;;;5.19;100.00;99403.41;5014793;28;19963;-85
2023/10/17 19:12:35;;;;;;;;;;;;;;;5.07;100.00;99401.97;5015162;28;19961;-87
2023/10/17 19:15:01;;;;;;;;;;;;;;;5.66;100.00;99405.59;5015422;28;19940;-85
2023/10/17 19:17:27;;;;;;;;;;;;;;;6.01;100.00;99409.84;5031866;28;20368;-85
2023/10/17 19:19:52;;;;;;;;;;;;;;;6.22;100.00;99400.44;5033017;28;20004;-84
2023/10/17 19:22:18;;;;;;;;;;;;;;;6.35;100.00;99406.19;5015380;28;19917;-87
2023/10/17 19:24:47;;;;;;;;;;;;;;;6.42;100.00;99409.50;5015242;28;19917;-85
2023/10/17 19:27:13;;;;;;;;;;;;;;;6.60;100.00;99410.66;5015106;28;19917;-86
2023/10/17 19:29:42;;;;;;;;;;;;;;;6.63;100.00;99406.16;5006237;28;19940;-86
2023/10/17 19:32:10;;;;;;;;;;;;;;;6.66;100.00;99406.06;5013783;28;20387;-86
2023/10/17 19:34:43;;;;;;;;;;;;;;;6.71;100.00;99401.50;5014949;28;20010;-85
2023/10/17 19:37:09;;;;;;;;;;;;;;;6.80;100.00;99397.72;5031958;28;20356;-86
2023/10/17 19:39:35;;;;;;;;;;;;;;;6.92;100.00;99399.06;5014816;28;19917;-87
2023/10/17 19:42:04;;;;;;;;;;;;;;;7.02;100.00;99395.22;5014889;28;19924;-86
2023/10/17 19:44:29;;;;;;;;;;;;;;;7.21;100.00;99399.81;5031705;28;19924;-86
2023/10/17 19:46:56;;;;;;;;;;;;;;;7.35;100.00;99401.97;5032249;28;19913;-86
2023/10/17 19:49:21;;;;;;;;;;;;;;;7.49;100.00;99397.06;5031874;28;19932;-85
2023/10/17 19:51:47;;;;;;;;;;;;;;;7.62;100.00;99400.09;5032485;28;19917;-86
2023/10/17 19:54:12;;;;;;;;;;;;;;;8.07;100.00;99391.38;5032474;28;19975;-85
2023/10/17 19:56:37;;;;;;;;;;;;;;;8.09;100.00;99381.63;5032216;28;19917;-86
2023/10/17 19:59:03;;;;;;;;;;;;;;;7.40;100.00;99393.00;5014733;28;19928;-89
2023/10/17 20:01:31;;;;;;;;;;;;;;;7.21;100.00;99389.28;5014386;28;19986;-85
2023/10/17 20:03:56;;;;;;;;;;;;;;;7.09;100.00;99391.44;5013377;28;19921;-88
2023/10/17 20:06:22;;;;;;;;;;;;;;;7.02;100.00;99391.69;5032108;28;19974;-86
2023/10/17 20:08:47;;;;;;;;;;;;;;;6.91;100.00;99389.44;5032131;28;19921;-85
2023/10/17 20:11:12;;;;;;;;;;;;;;;6.90;100.00;99390.34;5032265;28;20483;-84
2023/10/17 20:13:39;;;;;;;;;;;;;;;6.88;100.00;99386.91;5032081;28;19917;-85
2023/10/17 20:16:09;;;;;;;;;;;;;;;6.89;100.00;99384.25;5032138;28;19921;-85
2023/10/17 20:18:37;;;;;;;;;;;;;;;6.85;100.00;99373.84;5030806;28;19959;-86
2023/10/17 20:21:02;;;;;;;;;;;;;;;6.90;100.00;99364.00;5030388;28;19929;-88
2023/10/17 20:23:27;;;;;;;;;;;;;;;6.87;100.00;99361.47;5032468;28;19925;-91
2023/10/17 20:25:54;;;;;;;;;;;;;;;6.90;100.00;99358.75;5014613;28;20279;-84
2023/10/17 20:28:19;;;;;;;;;;;;;;;6.87;100.00;99348.31;5014382;28;19917;-85
2023/10/17 20:30:44;;;;;;;;;;;;;;;6.93;100.00;99353.38;5031926;28;20410;-85
2023/10/17 20:33:09;;;;;;;;;;;;;;;6.96;100.00;99348.00;5030810;28;19928;-87
2023/10/17 20:35:35;;;;;;;;;;;;;;;6.98;100.00;99348.81;5031980;28;19918;-86
2023/10/17 20:38:03;;;;;;;;;;;;;;;7.02;100.00;99339.88;5031853;28;19964;-85
2023/10/17 20:40:44;;;;;;;;;;;;;;;7.00;100.00;99333.78;5031742;28;19975;-88
2023/10/17 20:43:10;;;;;;;;;;;;;;;7.00;100.00;99333.78;5005822;28;20019;-84
2023/10/17 20:45:35;;;;;;;;;;;;;;;6.99;100.00;99333.84;5014096;28;20044;-86
2023/10/17 20:48:03;;;;;;;;;;;;;;;7.03;100.00;99327.56;5030671;28;20055;-85
2023/10/17 20:50:29;;;;;;;;;;;;;;;7.03;100.00;99327.56;5031531;28;19971;-88
2023/10/17 20:52:54;;;;;;;;;;;;;;;7.06;100.00;99328.31;5014177;28;20008;-86
2023/10/17 20:55:19;;;;;;;;;;;;;;;7.05;100.00;99328.38;5014008;28;20003;-85
2023/10/17 20:57:45;;;;;;;;;;;;;;;7.09;100.00;99322.94;5013992;28;19924;-86
2023/10/17 21:00:12;;;;;;;;;;;;;;;7.09;100.00;99317.66;5014045;28;19958;-85
2023/10/17 21:02:38;;;;;;;;;;;;;;;7.07;100.00;99314.22;5030523;28;19929;-84
2023/10/17 21:05:06;;;;;;;;;;;;;;;7.10;100.00;99308.00;5031706;28;19917;-85
2023/10/17 21:07:32;;;;;;;;;;;;;;;7.11;100.00;99308.84;5031597;28;19913;-86
2023/10/17 21:09:57;;;;;;;;;;;;;;;7.11;100.00;99308.84;5031739;28;19921;-84
2023/10/17 21:12:22;;;;;;;;;;;;;;;7.08;100.00;99313.34;5013834;28;20386;-84
2023/10/17 21:14:48;;;;;;;;;;;;;;;7.11;100.00;99303.59;5013910;28;19921;-87
2023/10/17 21:17:15;;;;;;;;;;;;;;;7.09;100.00;99306.28;5020776;28;19921;-85
2023/10/17 21:19:40;;;;;;;;;;;;;;;7.10;100.00;99294.84;5013703;28;20379;-86
2023/10/17 21:22:07;;;;;;;;;;;;;;;7.09;100.00;99293.94;5013805;28;19917;-88
2023/10/17 21:24:32;;;;;;;;;;;;;;;7.11;100.00;99288.63;5013655;28;20560;-85
2023/10/17 21:26:58;;;;;;;;;;;;;;;7.09;100.00;99285.19;5013894;28;19976;-85
2023/10/17 21:29:28;;;;;;;;;;;;;;;7.12;100.00;99292.16;5031593;28;19917;-84